createdAt,value
2018-09-29T00:01:35.849Z,97.52
2018-09-29T00:04:39.033Z,96.36
2018-09-29T00:07:42.174Z,97.86
2018-09-29T00:10:45.407Z,97.12
2018-09-29T00:13:48.566Z,96.94
2018-09-29T00:16:51.661Z,95.29
2018-09-29T00:19:54.850Z,94.96
2018-09-29T00:22:58.053Z,96.51
2018-09-29T00:26:01.201Z,98.26
2018-09-29T00:29:04.320Z,97.09
2018-09-29T00:32:07.409Z,97.43
2018-09-29T00:35:10.609Z,96.24
2018-09-29T00:38:13.736Z,96.55
2018-09-29T00:41:16.875Z,98.89
2018-09-29T00:44:20.070Z,98.19
2018-09-29T00:47:23.163Z,96.60
2018-09-29T00:50:26.359Z,99.32
2018-09-29T00:53:29.473Z,100.00
2018-09-29T00:56:32.608Z,98.59
2018-09-29T00:59:35.867Z,97.70
2018-09-29T01:02:38.999Z,99.22
2018-09-29T01:05:42.110Z,97.84
2018-09-29T01:08:45.305Z,98.30
2018-09-29T01:11:48.398Z,97.68
2018-09-29T01:14:51.625Z,97.59
2018-09-29T01:17:54.789Z,97.89
2018-09-29T01:20:57.909Z,97.59
2018-09-29T01:24:01.094Z,96.25
2018-09-29T01:27:04.252Z,97.22
2018-09-29T01:30:07.596Z,96.72
2018-09-29T01:33:10.785Z,97.75
2018-09-29T01:36:14.264Z,97.63
2018-09-29T01:39:17.482Z,96.88
2018-09-29T01:42:20.618Z,96.11
2018-09-29T01:45:23.768Z,96.85
2018-09-29T01:48:26.859Z,97.98
2018-09-29T01:51:30.018Z,97.62
2018-09-29T01:54:33.227Z,97.99
2018-09-29T01:57:36.392Z,97.19
2018-09-29T02:00:39.613Z,98.08
2018-09-29T02:03:42.737Z,97.12
2018-09-29T02:06:45.906Z,97.09
2018-09-29T02:09:49.306Z,96.86
2018-09-29T02:12:52.442Z,97.79
2018-09-29T02:15:55.583Z,100.00
2018-09-29T02:18:58.774Z,99.46
2018-09-29T02:22:01.951Z,98.91
2018-09-29T02:25:05.209Z,98.76
2018-09-29T02:28:08.345Z,96.83
2018-09-29T02:31:11.461Z,99.00
2018-09-29T02:34:14.565Z,99.34
2018-09-29T02:37:20.142Z,99.25
2018-09-29T02:40:23.652Z,100.00
2018-09-29T02:43:26.838Z,97.47
2018-09-29T02:46:30.011Z,97.34
2018-09-29T02:49:33.140Z,99.11
2018-09-29T02:52:36.575Z,97.01
2018-09-29T02:55:39.750Z,95.42
2018-09-29T02:58:42.900Z,96.80
2018-09-29T03:01:47.055Z,99.27
2018-09-29T03:04:50.226Z,97.34
2018-09-29T03:07:53.338Z,97.60
2018-09-29T03:10:56.482Z,98.25
2018-09-29T03:13:59.588Z,99.66
2018-09-29T03:17:02.721Z,99.36
2018-09-29T03:20:05.734Z,99.91
2018-09-29T03:23:08.945Z,98.61
2018-09-29T03:26:12.143Z,98.50
2018-09-29T03:29:15.322Z,99.79
2018-09-29T03:32:18.572Z,97.07
2018-09-29T03:35:21.739Z,96.93
2018-09-29T03:38:24.867Z,96.54
2018-09-29T03:41:28.066Z,98.38
2018-09-29T03:44:31.438Z,96.40
2018-09-29T03:47:34.669Z,97.62
2018-09-29T03:50:37.794Z,96.15
2018-09-29T03:53:41.053Z,96.74
2018-09-29T03:56:44.166Z,96.48
2018-09-29T03:59:47.364Z,97.32
2018-09-29T04:02:50.557Z,97.62
2018-09-29T04:05:53.769Z,97.31
2018-09-29T04:08:56.877Z,97.56
2018-09-29T04:12:00.122Z,98.05
2018-09-29T04:15:03.641Z,97.51
2018-09-29T04:18:07.861Z,99.62
2018-09-29T04:21:11.077Z,97.19
2018-09-29T04:24:14.745Z,98.63
2018-09-29T04:27:17.933Z,98.19
2018-09-29T04:30:21.070Z,98.70
2018-09-29T04:33:24.265Z,100.00
2018-09-29T04:36:27.406Z,100.00
2018-09-29T04:39:30.623Z,100.00
2018-09-29T04:42:33.825Z,100.00
2018-09-29T04:45:37.012Z,100.00
2018-09-29T04:48:40.117Z,100.00
2018-09-29T04:51:43.288Z,99.96
2018-09-29T04:54:46.481Z,99.29
2018-09-29T04:57:50.597Z,100.00
2018-09-29T05:00:53.737Z,99.96
2018-09-29T05:03:57.876Z,99.33
2018-09-29T05:07:01.120Z,97.14
2018-09-29T05:10:05.444Z,97.86
2018-09-29T05:13:08.602Z,100.00
2018-09-29T05:16:11.857Z,99.56
2018-09-29T05:19:15.130Z,95.10
2018-09-29T05:22:18.261Z,98.10
2018-09-29T05:25:22.534Z,96.59
2018-09-29T05:28:25.665Z,96.37
2018-09-29T05:31:28.955Z,94.83
2018-09-29T05:34:32.130Z,96.50
2018-09-29T05:37:35.302Z,98.90
2018-09-29T05:40:38.580Z,99.00
2018-09-29T05:43:41.703Z,98.54
2018-09-29T05:46:44.853Z,99.21
2018-09-29T05:49:47.975Z,98.77
2018-09-29T05:52:51.372Z,96.15
2018-09-29T05:55:54.691Z,96.51
2018-09-29T05:58:59.201Z,96.03
2018-09-29T06:02:02.717Z,95.79
2018-09-29T06:05:06.049Z,97.99
2018-09-29T06:08:09.227Z,97.11
2018-09-29T06:11:13.350Z,91.18
2018-09-29T06:14:17.700Z,89.93
2018-09-29T06:17:20.856Z,88.29
2018-09-29T06:20:24.159Z,88.60
2018-09-29T06:23:28.293Z,83.97
2018-09-29T06:26:32.502Z,87.48
2018-09-29T06:29:35.809Z,84.38
2018-09-29T06:32:40.189Z,82.29
2018-09-29T06:35:43.442Z,81.84
2018-09-29T06:38:46.610Z,78.51
2018-09-29T06:41:49.804Z,78.94
2018-09-29T06:44:54.426Z,81.10
2018-09-29T06:47:58.064Z,81.14
2018-09-29T06:51:02.351Z,82.69
2018-09-29T06:54:06.370Z,87.86
2018-09-29T06:57:09.657Z,87.11
2018-09-29T07:00:12.963Z,81.72
2018-09-29T07:03:16.169Z,78.62
2018-09-29T07:06:19.393Z,84.45
2018-09-29T07:09:22.536Z,89.54
2018-09-29T07:12:25.898Z,92.11
2018-09-29T07:15:29.149Z,89.89
2018-09-29T07:18:32.311Z,90.09
2018-09-29T07:21:35.558Z,86.33
2018-09-29T07:24:38.746Z,89.89
2018-09-29T07:27:41.889Z,90.75
2018-09-29T07:30:45.122Z,90.28
2018-09-29T07:33:48.308Z,87.29
2018-09-29T07:38:01.548Z,83.36
2018-09-29T07:41:04.770Z,84.22
2018-09-29T07:44:08.342Z,83.10
2018-09-29T07:47:11.545Z,82.00
2018-09-29T07:50:14.713Z,82.78
2018-09-29T07:53:17.838Z,78.61
2018-09-29T07:56:21.056Z,80.59
2018-09-29T07:59:24.541Z,78.62
2018-09-29T08:02:27.675Z,78.02
2018-09-29T08:05:30.757Z,82.30
2018-09-29T08:08:33.882Z,79.96
2018-09-29T08:11:37.029Z,79.57
2018-09-29T08:14:40.288Z,80.65
2018-09-29T08:17:43.506Z,80.49
2018-09-29T08:20:46.651Z,82.52
2018-09-29T08:23:49.884Z,82.13
2018-09-29T08:26:52.988Z,82.29
2018-09-29T08:29:56.113Z,82.32
2018-09-29T08:32:59.254Z,83.26
2018-09-29T08:36:02.382Z,83.44
2018-09-29T08:39:07.681Z,81.90
2018-09-29T08:42:10.904Z,80.28
2018-09-29T08:45:14.048Z,78.35
2018-09-29T08:48:17.166Z,77.94
2018-09-29T08:51:20.299Z,77.83
2018-09-29T08:54:23.553Z,75.42
2018-09-29T08:57:26.690Z,76.40
2018-09-29T09:00:29.957Z,77.26
2018-09-29T09:03:33.238Z,78.79
2018-09-29T09:06:36.429Z,79.64
2018-09-29T09:09:39.617Z,79.21
2018-09-29T09:12:42.810Z,78.98
2018-09-29T09:15:46.106Z,77.42
2018-09-29T09:18:49.244Z,76.50
2018-09-29T09:21:52.324Z,78.66
2018-09-29T09:24:55.458Z,77.10
2018-09-29T09:27:58.590Z,73.84
2018-09-29T09:31:01.749Z,73.13
2018-09-29T09:34:04.958Z,72.00
2018-09-29T09:37:08.107Z,69.02
2018-09-29T09:40:11.346Z,71.17
2018-09-29T09:43:14.469Z,69.91
2018-09-29T09:46:17.599Z,70.67
2018-09-29T09:49:20.737Z,69.66
2018-09-29T09:52:23.862Z,65.10
2018-09-29T09:55:28.034Z,66.67
2018-09-29T09:58:31.217Z,64.25
2018-09-29T10:01:39.025Z,62.82
2018-09-29T10:04:42.183Z,62.78
2018-09-29T10:07:45.397Z,60.64
2018-09-29T10:10:48.466Z,60.77
2018-09-29T10:13:51.680Z,60.69
2018-09-29T10:16:54.826Z,60.16
2018-09-29T10:19:57.970Z,61.03
2018-09-29T10:23:01.077Z,62.59
2018-09-29T10:26:04.288Z,60.62
2018-09-29T10:29:07.584Z,60.74
2018-09-29T10:32:10.741Z,60.02
2018-09-29T10:35:13.957Z,59.34
2018-09-29T10:38:17.201Z,56.78
2018-09-29T10:41:20.342Z,59.67
2018-09-29T10:44:23.473Z,59.67
2018-09-29T10:47:27.721Z,57.79
2018-09-29T10:50:30.868Z,59.55
2018-09-29T10:53:33.965Z,57.93
2018-09-29T10:56:37.128Z,56.49
2018-09-29T10:59:40.338Z,56.14
2018-09-29T11:02:43.603Z,56.77
2018-09-29T11:05:46.660Z,57.74
2018-09-29T11:08:49.794Z,56.68
2018-09-29T11:11:53.998Z,55.06
2018-09-29T11:14:58.267Z,55.88
2018-09-29T11:18:01.518Z,59.08
2018-09-29T11:21:04.864Z,54.15
2018-09-29T11:24:08.052Z,53.78
2018-09-29T11:27:11.221Z,54.89
2018-09-29T11:30:14.445Z,55.26
2018-09-29T11:33:17.639Z,53.26
2018-09-29T11:36:20.768Z,54.08
2018-09-29T11:39:24.045Z,51.42
2018-09-29T11:42:27.133Z,49.54
2018-09-29T11:45:30.392Z,50.55
2018-09-29T11:48:33.559Z,52.00
2018-09-29T11:51:36.821Z,50.52
2018-09-29T11:54:40.065Z,49.56
2018-09-29T11:57:43.317Z,48.86
2018-09-29T12:00:46.645Z,50.57
2018-09-29T12:03:50.818Z,49.50
2018-09-29T12:06:53.906Z,49.99
2018-09-29T12:09:59.093Z,50.50
2018-09-29T12:13:02.779Z,51.86
2018-09-29T12:16:07.048Z,49.27
2018-09-29T12:19:10.321Z,49.23
2018-09-29T12:22:13.565Z,51.33
2018-09-29T12:25:16.826Z,51.11
2018-09-29T12:28:19.974Z,49.01
2018-09-29T12:31:23.214Z,49.00
2018-09-29T12:34:26.364Z,47.21
2018-09-29T12:37:29.541Z,48.48
2018-09-29T12:40:32.615Z,48.91
2018-09-29T12:43:36.118Z,47.09
2018-09-29T12:46:39.241Z,47.69
2018-09-29T12:49:42.341Z,47.81
2018-09-29T12:52:45.486Z,49.14
2018-09-29T12:55:48.678Z,52.11
2018-09-29T12:58:51.835Z,54.00
2018-09-29T13:01:54.995Z,51.68
2018-09-29T13:04:58.274Z,50.69
2018-09-29T13:08:01.458Z,51.73
2018-09-29T13:11:04.804Z,48.45
2018-09-29T13:14:07.899Z,47.56
2018-09-29T13:17:12.173Z,46.51
2018-09-29T13:20:15.480Z,48.00
2018-09-29T13:23:18.694Z,50.28
2018-09-29T13:26:21.943Z,48.38
2018-09-29T13:29:25.136Z,48.62
2018-09-29T13:32:28.315Z,49.28
2018-09-29T13:35:31.469Z,46.81
2018-09-29T13:38:34.960Z,45.49
2018-09-29T13:41:38.187Z,45.29
2018-09-29T13:44:41.403Z,45.42
2018-09-29T13:47:44.669Z,45.64
2018-09-29T13:50:47.853Z,43.84
2018-09-29T13:53:51.045Z,45.39
2018-09-29T13:56:54.249Z,46.63
2018-09-29T13:59:57.453Z,46.84
2018-09-29T14:03:00.644Z,46.54
2018-09-29T14:06:03.849Z,45.68
2018-09-29T14:09:08.963Z,46.03
2018-09-29T14:12:12.161Z,46.40
2018-09-29T14:15:15.579Z,47.71
2018-09-29T14:18:18.757Z,46.41
2018-09-29T14:21:21.952Z,45.17
2018-09-29T14:24:25.145Z,46.51
2018-09-29T14:27:28.345Z,46.21
2018-09-29T14:30:31.538Z,45.15
2018-09-29T14:33:34.731Z,43.38
2018-09-29T14:36:37.895Z,44.27
2018-09-29T14:39:41.108Z,44.48
2018-09-29T14:42:44.316Z,45.52
2018-09-29T14:45:47.516Z,45.21
2018-09-29T14:48:50.696Z,46.33
2018-09-29T14:51:53.904Z,48.47
2018-09-29T14:54:57.196Z,46.84
2018-09-29T14:58:00.373Z,46.31
2018-09-29T15:01:03.706Z,46.38
2018-09-29T15:04:07.079Z,44.40
2018-09-29T15:07:10.237Z,41.67
2018-09-29T15:10:13.522Z,40.81
2018-09-29T15:13:16.641Z,41.52
2018-09-29T15:16:19.861Z,42.32
2018-09-29T15:19:23.140Z,41.26
2018-09-29T15:22:26.368Z,42.68
2018-09-29T15:25:30.562Z,45.06
2018-09-29T15:28:33.797Z,44.67
2018-09-29T15:31:36.961Z,42.85
2018-09-29T15:34:40.181Z,42.78
2018-09-29T15:37:43.442Z,43.44
2018-09-29T15:40:46.597Z,42.56
2018-09-29T15:43:51.744Z,42.63
2018-09-29T15:46:55.820Z,41.35
2018-09-29T15:49:59.961Z,42.23
2018-09-29T15:53:03.162Z,42.95
2018-09-29T15:56:06.397Z,44.51
2018-09-29T15:59:10.449Z,41.76
2018-09-29T16:02:13.692Z,43.47
2018-09-29T16:05:16.899Z,43.21
2018-09-29T16:08:20.110Z,45.46
2018-09-29T16:11:23.266Z,46.71
2018-09-29T16:14:26.442Z,47.20
2018-09-29T16:17:29.738Z,47.88
2018-09-29T16:20:32.940Z,48.22
2018-09-29T16:23:36.157Z,48.04
2018-09-29T16:26:42.610Z,48.70
2018-09-29T16:29:45.754Z,48.82
2018-09-29T16:32:49.878Z,48.67
2018-09-29T16:35:53.569Z,50.07
2018-09-29T16:38:56.905Z,51.45
2018-09-29T16:42:00.154Z,50.62
2018-09-29T16:45:05.430Z,50.42
2018-09-29T16:48:08.727Z,50.95
2018-09-29T16:51:11.911Z,51.75
2018-09-29T16:54:15.118Z,53.54
2018-09-29T16:57:18.326Z,55.83
2018-09-29T17:00:21.518Z,58.52
2018-09-29T17:03:24.793Z,59.82
2018-09-29T17:06:27.950Z,60.33
2018-09-29T17:09:31.105Z,61.03
2018-09-29T17:12:34.464Z,63.16
2018-09-29T17:15:37.660Z,63.36
2018-09-29T17:18:40.867Z,65.29
2018-09-29T17:21:45.083Z,67.33
2018-09-29T17:24:52.541Z,66.57
2018-09-29T17:27:59.510Z,68.04
2018-09-29T17:31:03.159Z,68.89
2018-09-29T17:34:06.360Z,68.37
2018-09-29T17:37:09.511Z,68.70
2018-09-29T17:40:12.847Z,68.99
2018-09-29T17:43:16.091Z,70.99
2018-09-29T17:46:19.398Z,70.16
2018-09-29T17:49:22.798Z,71.00
2018-09-29T17:52:26.135Z,70.37
2018-09-29T17:55:30.345Z,69.80
2018-09-29T17:58:33.625Z,70.61
2018-09-29T18:01:36.910Z,71.15
2018-09-29T18:04:43.555Z,70.61
2018-09-29T18:07:46.785Z,73.59
2018-09-29T18:25:11.732Z,73.08
2018-09-29T18:42:23.407Z,78.00
2018-09-29T23:51:09.085Z,95.43
2018-09-29T23:54:12.227Z,96.58
2018-09-29T23:57:15.479Z,97.86
